createdAt,value
2018-04-15T00:01:12.728Z,5.60
2018-04-15T00:03:39.921Z,4.87
2018-04-15T00:06:07.173Z,5.20
2018-04-15T00:08:34.369Z,4.53
2018-04-15T00:11:01.779Z,4.40
2018-04-15T00:13:28.981Z,5.20
2018-04-15T00:15:56.167Z,5.30
2018-04-15T00:18:23.660Z,3.97
2018-04-15T00:20:50.604Z,4.90
2018-04-15T00:23:17.813Z,4.97
2018-04-15T00:25:44.993Z,3.90
2018-04-15T00:28:12.186Z,5.20
2018-04-15T00:30:39.698Z,4.87
2018-04-15T00:33:06.887Z,5.27
2018-04-15T00:35:34.107Z,8.20
2018-04-15T00:38:01.300Z,5.83
2018-04-15T00:40:28.247Z,4.93
2018-04-15T00:42:55.432Z,5.23
2018-04-15T00:45:22.625Z,5.47
2018-04-15T00:47:49.810Z,5.10
2018-04-15T00:50:16.996Z,4.93
2018-04-15T00:52:44.219Z,5.33
2018-04-15T00:55:11.435Z,8.40
2018-04-15T00:57:38.625Z,6.33
2018-04-15T01:00:06.093Z,5.07
2018-04-15T01:02:33.594Z,6.90
2018-04-15T01:05:01.069Z,4.70
2018-04-15T01:07:28.557Z,4.50
2018-04-15T01:09:56.043Z,4.95
2018-04-15T01:12:23.526Z,4.35
2018-04-15T01:14:51.003Z,3.92
2018-04-15T01:17:18.678Z,4.55
2018-04-15T01:19:46.261Z,4.78
2018-04-15T01:22:13.739Z,4.50
2018-04-15T01:24:41.205Z,4.65
2018-04-15T01:27:08.682Z,4.05
2018-04-15T01:29:36.174Z,4.60
2018-04-15T01:32:03.649Z,4.97
2018-04-15T01:34:31.151Z,4.60
2018-04-15T01:36:59.321Z,5.62
2018-04-15T01:39:26.817Z,6.12
2018-04-15T01:41:54.294Z,5.90
2018-04-15T01:44:21.770Z,5.22
2018-04-15T01:46:49.245Z,5.40
2018-04-15T01:49:16.719Z,5.90
2018-04-15T01:51:43.996Z,6.43
2018-04-15T01:54:11.462Z,5.80
2018-04-15T01:56:38.954Z,5.07
2018-04-15T01:59:06.143Z,6.10
2018-04-15T02:01:33.642Z,4.95
2018-04-15T02:04:01.127Z,4.97
2018-04-15T02:06:28.325Z,7.27
2018-04-15T02:08:55.513Z,6.10
2018-04-15T02:11:22.991Z,5.90
2018-04-15T02:13:50.249Z,4.97
2018-04-15T02:16:17.509Z,5.35
2018-04-15T02:18:44.971Z,5.35
2018-04-15T02:21:12.456Z,4.65
2018-04-15T02:23:39.935Z,4.53
2018-04-15T02:26:07.431Z,4.22
2018-04-15T02:28:34.919Z,5.28
2018-04-15T02:31:02.506Z,5.57
2018-04-15T02:33:30.003Z,4.28
2018-04-15T02:35:57.470Z,4.03
2018-04-15T02:38:24.950Z,3.95
2018-04-15T02:40:52.422Z,3.90
2018-04-15T02:43:19.913Z,4.57
2018-04-15T02:45:47.393Z,3.87
2018-04-15T02:48:14.883Z,4.35
2018-04-15T02:50:42.372Z,4.20
2018-04-15T02:53:09.886Z,4.47
2018-04-15T02:55:37.530Z,3.80
2018-04-15T02:58:05.026Z,3.87
2018-04-15T03:00:32.514Z,4.87
2018-04-15T03:02:59.993Z,5.30
2018-04-15T03:05:27.478Z,6.25
2018-04-15T03:07:54.959Z,3.80
2018-04-15T03:10:22.223Z,3.00
2018-04-15T03:12:49.691Z,3.50
2018-04-15T03:15:17.188Z,3.75
2018-04-15T03:17:44.686Z,3.30
2018-04-15T03:20:12.153Z,3.83
2018-04-15T03:22:39.661Z,3.72
2018-04-15T03:25:07.138Z,3.40
2018-04-15T03:27:34.628Z,3.53
2018-04-15T03:30:02.094Z,2.80
2018-04-15T03:32:29.599Z,3.65
2018-04-15T03:34:57.070Z,3.47
2018-04-15T03:37:24.541Z,2.55
2018-04-15T03:39:52.027Z,3.25
2018-04-15T03:42:19.494Z,3.30
2018-04-15T03:44:46.982Z,3.20
2018-04-15T03:47:14.457Z,3.30
2018-04-15T03:49:41.936Z,2.92
2018-04-15T03:52:09.441Z,3.28
2018-04-15T03:54:36.911Z,2.87
2018-04-15T03:57:04.139Z,3.10
2018-04-15T03:59:31.613Z,3.00
2018-04-15T04:01:59.093Z,3.00
2018-04-15T04:04:26.614Z,3.03
2018-04-15T04:06:54.085Z,3.70
2018-04-15T04:09:21.586Z,2.80
2018-04-15T04:11:49.069Z,2.85
2018-04-15T04:14:16.554Z,3.17
2018-04-15T04:16:44.034Z,3.22
2018-04-15T04:19:17.048Z,2.95
2018-04-15T04:21:50.262Z,3.42
2018-04-15T04:24:23.319Z,2.55
2018-04-15T04:26:50.794Z,2.60
2018-04-15T04:29:18.277Z,2.58
2018-04-15T04:31:45.758Z,3.20
2018-04-15T04:34:13.232Z,3.20
2018-04-15T04:36:40.716Z,3.22
2018-04-15T04:39:08.177Z,3.00
2018-04-15T04:41:35.666Z,2.95
2018-04-15T04:44:03.153Z,2.25
2018-04-15T04:46:30.623Z,3.25
2018-04-15T04:48:58.091Z,2.22
2018-04-15T04:51:25.685Z,2.33
2018-04-15T04:53:53.175Z,2.45
2018-04-15T04:56:20.649Z,2.60
2018-04-15T04:58:48.127Z,2.50
2018-04-15T05:01:15.641Z,2.17
2018-04-15T05:03:43.110Z,2.55
2018-04-15T05:06:10.597Z,2.62
2018-04-15T05:08:38.109Z,2.28
2018-04-15T05:11:05.619Z,2.45
2018-04-15T05:13:33.091Z,3.30
2018-04-15T05:16:00.567Z,2.78
2018-04-15T05:18:28.042Z,2.80
2018-04-15T05:20:55.517Z,2.25
2018-04-15T05:23:23.009Z,2.20
2018-04-15T05:25:50.478Z,2.40
2018-04-15T05:28:17.954Z,2.67
2018-04-15T05:30:45.442Z,2.30
2018-04-15T05:33:12.925Z,2.67
2018-04-15T05:35:40.400Z,2.50
2018-04-15T05:38:07.873Z,3.20
2018-04-15T05:40:35.362Z,2.10
2018-04-15T05:43:02.847Z,2.20
2018-04-15T05:45:30.309Z,2.45
2018-04-15T05:47:57.800Z,1.77
2018-04-15T05:50:25.281Z,2.30
2018-04-15T05:52:52.759Z,2.12
2018-04-15T05:55:20.217Z,2.37
2018-04-15T05:57:47.690Z,2.10
2018-04-15T06:00:15.158Z,2.70
2018-04-15T06:02:42.658Z,2.30
2018-04-15T06:05:10.123Z,2.40
2018-04-15T06:07:37.609Z,2.95
2018-04-15T06:10:05.103Z,2.53
2018-04-15T06:12:32.578Z,3.35
2018-04-15T06:15:00.057Z,3.00
2018-04-15T06:17:27.533Z,3.30
2018-04-15T06:19:55.009Z,2.80
2018-04-15T06:22:22.477Z,3.25
2018-04-15T06:24:49.971Z,3.50
2018-04-15T06:27:17.442Z,2.72
2018-04-15T06:29:44.928Z,3.10
2018-04-15T06:32:12.406Z,3.87
2018-04-15T06:34:39.869Z,3.08
2018-04-15T06:37:07.358Z,2.72
2018-04-15T06:39:34.869Z,2.95
2018-04-15T06:42:02.349Z,2.85
2018-04-15T06:44:29.829Z,3.12
2018-04-15T06:46:57.330Z,2.80
2018-04-15T06:49:24.829Z,2.90
2018-04-15T06:51:52.063Z,3.83
2018-04-15T06:54:19.570Z,3.00
2018-04-15T06:56:47.043Z,2.65
2018-04-15T06:59:14.532Z,3.05
2018-04-15T07:01:41.994Z,2.58
2018-04-15T07:04:09.491Z,3.15
2018-04-15T07:06:36.954Z,2.37
2018-04-15T07:09:04.186Z,2.30
2018-04-15T07:11:31.667Z,2.40
2018-04-15T07:13:59.163Z,2.55
2018-04-15T07:16:26.360Z,2.50
2018-04-15T07:21:27.341Z,2.43
2018-04-15T07:23:54.538Z,2.30
2018-04-15T07:26:21.726Z,2.43
2018-04-15T07:28:48.914Z,2.27
2018-04-15T07:31:16.134Z,2.27
2018-04-15T07:33:43.351Z,2.20
2018-04-15T07:36:10.497Z,2.40
2018-04-15T07:38:37.681Z,2.43
2018-04-15T07:41:04.642Z,2.23
2018-04-15T07:43:31.845Z,2.83
2018-04-15T07:45:59.037Z,2.77
2018-04-15T07:48:26.249Z,3.23
2018-04-15T07:50:53.468Z,3.40
2018-04-15T07:53:20.657Z,3.50
2018-04-15T07:55:47.902Z,3.57
2018-04-15T07:58:15.090Z,3.50
2018-04-15T08:00:42.290Z,3.63
2018-04-15T08:03:09.500Z,3.90
2018-04-15T08:05:36.715Z,3.60
2018-04-15T08:08:03.926Z,3.90
2018-04-15T08:10:31.298Z,3.77
2018-04-15T08:12:58.526Z,3.30
2018-04-15T08:15:25.717Z,4.43
2018-04-15T08:17:52.936Z,3.70
2018-04-15T08:20:20.198Z,3.50
2018-04-15T08:22:47.195Z,3.70
2018-04-15T08:25:14.479Z,3.63
2018-04-15T08:27:41.815Z,3.93
2018-04-15T08:30:09.034Z,3.97
2018-04-15T08:32:36.218Z,4.53
2018-04-15T08:35:03.412Z,4.27
2018-04-15T08:37:30.623Z,3.80
2018-04-15T08:39:57.813Z,3.90
2018-04-15T08:42:25.027Z,3.87
2018-04-15T08:44:52.254Z,4.70
2018-04-15T08:47:23.875Z,4.33
2018-04-15T08:49:56.528Z,4.23
2018-04-15T08:52:23.717Z,4.67
2018-04-15T08:54:50.925Z,4.43
2018-04-15T08:57:18.128Z,4.10
2018-04-15T08:59:45.353Z,4.77
2018-04-15T09:02:12.564Z,3.97
2018-04-15T09:04:39.757Z,4.63
2018-04-15T09:07:07.028Z,5.03
2018-04-15T09:09:33.994Z,4.33
2018-04-15T09:12:01.241Z,5.13
2018-04-15T09:14:28.478Z,5.23
2018-04-15T09:16:55.683Z,4.67
2018-04-15T09:19:22.895Z,4.60
2018-04-15T09:21:50.113Z,4.50
2018-04-15T09:24:17.401Z,5.33
2018-04-15T09:26:44.618Z,5.10
2018-04-15T09:29:11.806Z,5.53
2018-04-15T09:31:38.996Z,4.70
2018-04-15T09:34:06.190Z,5.00
2018-04-15T09:36:33.390Z,5.30
2018-04-15T09:39:00.618Z,5.80
2018-04-15T09:41:27.995Z,5.93
2018-04-15T09:43:55.239Z,5.67
2018-04-15T09:46:22.446Z,5.27
2018-04-15T09:48:49.945Z,5.53
2018-04-15T09:51:17.150Z,5.70
2018-04-15T09:53:44.381Z,5.10
2018-04-15T09:56:11.594Z,5.60
2018-04-15T09:58:38.801Z,5.37
2018-04-15T10:01:05.785Z,5.07
2018-04-15T10:03:32.982Z,5.10
2018-04-15T10:06:00.179Z,5.20
2018-04-15T10:08:27.374Z,5.77
2018-04-15T10:10:54.629Z,4.73
2018-04-15T10:13:21.980Z,6.40
2018-04-15T10:15:49.206Z,4.93
2018-04-15T10:18:16.399Z,5.03
2018-04-15T10:20:43.630Z,5.20
2018-04-15T10:23:10.833Z,5.00
2018-04-15T10:25:38.032Z,5.80
2018-04-15T10:28:05.225Z,5.30
2018-04-15T10:30:32.201Z,5.53
2018-04-15T10:32:59.427Z,5.57
2018-04-15T10:35:26.620Z,5.30
2018-04-15T10:37:53.837Z,4.93
2018-04-15T10:40:21.026Z,5.30
2018-04-15T10:42:48.238Z,5.40
2018-04-15T10:45:15.453Z,5.47
2018-04-15T10:47:42.678Z,4.70
2018-04-15T10:50:10.094Z,4.10
2018-04-15T10:52:37.282Z,4.93
2018-04-15T10:55:04.494Z,5.67
2018-04-15T10:57:31.724Z,5.00
2018-04-15T10:59:58.946Z,5.03
2018-04-15T11:02:26.142Z,5.20
2018-04-15T11:04:53.371Z,4.93
2018-04-15T11:07:20.562Z,4.97
2018-04-15T11:09:47.790Z,5.70
2018-04-15T11:12:14.982Z,5.37
2018-04-15T11:14:42.204Z,4.67
2018-04-15T11:17:09.415Z,5.03
2018-04-15T11:19:36.610Z,5.73
2018-04-15T11:22:03.834Z,5.97
2018-04-15T11:24:31.107Z,4.90
2018-04-15T11:26:58.300Z,5.07
2018-04-15T11:29:25.578Z,4.37
2018-04-15T11:31:52.951Z,4.93
2018-04-15T11:34:20.165Z,5.87
2018-04-15T11:36:47.483Z,5.20
2018-04-15T11:39:14.811Z,5.40
2018-04-15T11:41:42.006Z,6.03
2018-04-15T11:44:09.193Z,5.60
2018-04-15T11:46:36.391Z,6.07
2018-04-15T11:49:03.591Z,6.53
2018-04-15T11:51:30.878Z,6.23
2018-04-15T11:53:58.269Z,6.50
2018-04-15T11:56:25.513Z,6.20
2018-04-15T11:58:52.706Z,5.80
2018-04-15T12:01:19.918Z,6.30
2018-04-15T12:03:47.113Z,6.37
2018-04-15T12:06:14.499Z,6.00
2018-04-15T12:08:41.699Z,5.43
2018-04-15T12:11:08.950Z,6.40
2018-04-15T12:13:36.150Z,5.53
2018-04-15T12:16:03.749Z,6.20
2018-04-15T12:18:30.962Z,6.80
2018-04-15T12:20:58.183Z,6.43
2018-04-15T12:23:25.417Z,6.20
2018-04-15T12:25:52.659Z,6.23
2018-04-15T12:28:19.865Z,6.73
2018-04-15T12:30:47.085Z,6.60
2018-04-15T12:33:14.287Z,7.80
2018-04-15T12:35:41.541Z,7.20
2018-04-15T12:38:08.929Z,6.70
2018-04-15T12:40:36.130Z,7.23
2018-04-15T12:43:03.336Z,6.70
2018-04-15T12:45:30.546Z,7.57
2018-04-15T12:47:57.789Z,7.47
2018-04-15T12:50:25.000Z,7.97
2018-04-15T12:52:52.213Z,7.40
2018-04-15T12:55:19.423Z,7.90
2018-04-15T12:57:46.767Z,8.80
2018-04-15T13:00:13.979Z,8.93
2018-04-15T13:02:41.212Z,8.43
2018-04-15T13:05:08.421Z,8.00
2018-04-15T13:07:35.624Z,10.20
2018-04-15T13:10:02.844Z,8.47
2018-04-15T13:12:30.082Z,8.50
2018-04-15T13:14:57.303Z,9.33
2018-04-15T13:17:24.506Z,8.30
2018-04-15T13:19:51.722Z,8.80
2018-04-15T13:22:18.950Z,8.30
2018-04-15T13:24:46.148Z,8.33
2018-04-15T13:27:13.406Z,10.30
2018-04-15T13:29:40.598Z,8.70
2018-04-15T13:32:07.844Z,7.70
2018-04-15T13:34:35.027Z,8.30
2018-04-15T13:37:02.308Z,8.80
2018-04-15T13:39:29.498Z,8.10
2018-04-15T13:41:56.682Z,9.40
2018-04-15T13:44:24.644Z,8.90
2018-04-15T13:46:51.842Z,8.50
2018-04-15T13:49:19.062Z,8.47
2018-04-15T13:51:46.274Z,8.40
2018-04-15T13:54:13.479Z,7.87
2018-04-15T13:56:40.666Z,9.90
2018-04-15T13:59:07.882Z,9.30
2018-04-15T14:01:35.080Z,8.20
2018-04-15T14:04:02.316Z,9.50
2018-04-15T14:06:29.531Z,10.63
2018-04-15T14:08:56.720Z,10.00
2018-04-15T14:11:23.965Z,10.10
2018-04-15T14:13:51.153Z,8.47
2018-04-15T14:16:18.354Z,8.60
2018-04-15T14:18:45.541Z,8.47
2018-04-15T14:21:12.526Z,9.30
2018-04-15T14:23:39.733Z,9.13
2018-04-15T14:26:06.973Z,8.40
2018-04-15T14:28:34.212Z,8.13
2018-04-15T14:31:01.395Z,8.67
2018-04-15T14:33:28.634Z,8.73
2018-04-15T14:35:55.844Z,8.97
2018-04-15T14:38:23.156Z,7.97
2018-04-15T14:40:50.360Z,7.90
2018-04-15T14:43:17.565Z,8.70
2018-04-15T14:45:44.771Z,8.30
2018-04-15T14:48:11.962Z,8.07
2018-04-15T14:50:39.170Z,11.70
2018-04-15T14:53:06.358Z,8.30
2018-04-15T14:55:33.589Z,9.20
2018-04-15T14:58:00.826Z,8.73
2018-04-15T15:00:28.080Z,12.50
2018-04-15T15:02:55.055Z,9.47
2018-04-15T15:05:22.052Z,7.93
2018-04-15T15:07:49.264Z,8.50
2018-04-15T15:10:16.240Z,8.23
2018-04-15T15:12:43.449Z,7.57
2018-04-15T15:15:10.728Z,7.50
2018-04-15T15:17:37.956Z,7.37
2018-04-15T15:20:05.200Z,7.27
2018-04-15T15:22:32.414Z,7.30
2018-04-15T15:24:59.713Z,7.57
2018-04-15T15:27:26.845Z,6.70
2018-04-15T15:29:55.090Z,6.20
2018-04-15T15:32:22.303Z,7.90
2018-04-15T15:34:49.504Z,6.73
2018-04-15T15:37:16.706Z,7.43
2018-04-15T15:39:43.897Z,6.87
2018-04-15T15:42:11.221Z,7.40
2018-04-15T15:44:38.568Z,6.90
2018-04-15T15:47:05.757Z,6.50
2018-04-15T15:49:33.023Z,7.70
2018-04-15T15:52:00.390Z,6.93
2018-04-15T15:54:27.370Z,7.00
2018-04-15T15:56:54.570Z,7.83
2018-04-15T15:59:21.785Z,8.60
2018-04-15T16:01:49.018Z,6.87
2018-04-15T16:04:16.230Z,7.27
2018-04-15T16:06:43.482Z,7.30
2018-04-15T16:09:10.710Z,8.30
2018-04-15T16:11:37.927Z,7.57
2018-04-15T16:14:05.158Z,8.20
2018-04-15T16:16:32.400Z,8.20
2018-04-15T16:18:59.707Z,8.37
2018-04-15T16:21:26.910Z,7.47
2018-04-15T16:23:54.117Z,7.40
2018-04-15T16:26:21.332Z,6.83
2018-04-15T16:28:48.568Z,6.70
2018-04-15T16:31:15.788Z,7.20
2018-04-15T16:33:42.997Z,7.80
2018-04-15T16:36:10.208Z,7.30
2018-04-15T16:38:37.449Z,7.07
2018-04-15T16:41:04.650Z,7.13
2018-04-15T16:43:31.874Z,6.30
2018-04-15T16:45:59.107Z,7.40
2018-04-15T16:48:26.369Z,8.53
2018-04-15T16:50:53.619Z,7.83
2018-04-15T16:53:20.846Z,7.23
2018-04-15T16:55:48.068Z,6.90
2018-04-15T16:58:15.254Z,7.10
2018-04-15T17:00:42.480Z,7.63
2018-04-15T17:03:09.760Z,7.60
2018-04-15T17:05:37.068Z,6.63
2018-04-15T17:08:04.269Z,7.10
2018-04-15T17:10:31.497Z,7.60
2018-04-15T17:12:58.707Z,7.10
2018-04-15T17:15:25.985Z,7.40
2018-04-15T17:17:53.242Z,7.30
2018-04-15T17:20:20.463Z,7.80
2018-04-15T17:22:47.670Z,8.27
2018-04-15T17:25:14.873Z,7.53
2018-04-15T17:27:42.118Z,7.17
2018-04-15T17:30:09.307Z,7.10
2018-04-15T17:32:36.758Z,7.40
2018-04-15T17:35:04.004Z,7.50
2018-04-15T17:37:31.211Z,8.00
2018-04-15T17:40:00.194Z,7.63
2018-04-15T17:42:27.412Z,8.60
2018-04-15T17:44:54.630Z,8.27
2018-04-15T17:47:21.926Z,9.53
2018-04-15T17:49:49.149Z,7.10
2018-04-15T17:52:16.378Z,6.87
2018-04-15T17:54:43.609Z,8.47
2018-04-15T17:57:10.811Z,8.30
2018-04-15T17:59:38.058Z,7.73
2018-04-15T18:02:05.284Z,8.43
2018-04-15T18:04:32.544Z,7.20
2018-04-15T18:06:59.772Z,7.50
2018-04-15T18:09:27.024Z,8.80
2018-04-15T18:11:54.244Z,13.50
2018-04-15T18:14:21.464Z,11.37
2018-04-15T18:16:48.710Z,9.37
2018-04-15T18:19:15.908Z,9.27
2018-04-15T18:21:43.282Z,10.40
2018-04-15T18:24:10.735Z,12.20
2018-04-15T18:26:37.985Z,12.47
2018-04-15T18:29:05.254Z,12.97
2018-04-15T18:31:32.500Z,11.30
2018-04-15T18:33:59.812Z,10.20
2018-04-15T18:36:27.085Z,9.83
2018-04-15T18:38:54.398Z,9.73
2018-04-15T18:41:21.709Z,9.43
2018-04-15T18:43:49.019Z,9.20
2018-04-15T18:46:17.110Z,8.70
2018-04-15T18:48:44.427Z,7.80
2018-04-15T18:51:11.710Z,7.50
2018-04-15T18:53:39.022Z,7.57
2018-04-15T18:56:06.313Z,8.33
2018-04-15T18:58:33.639Z,8.60
2018-04-15T19:01:01.763Z,8.77
2018-04-15T19:03:29.074Z,7.87
2018-04-15T19:05:56.385Z,7.97
2018-04-15T19:08:23.710Z,8.50
2018-04-15T19:10:51.052Z,8.83
2018-04-15T19:13:18.343Z,9.13
2018-04-15T19:15:45.685Z,9.00
2018-04-15T19:18:12.996Z,8.20
2018-04-15T19:20:40.570Z,7.93
2018-04-15T19:23:07.867Z,9.17
2018-04-15T19:25:35.387Z,9.40
2018-04-15T19:28:02.723Z,8.50
2018-04-15T19:30:29.994Z,8.77
2018-04-15T19:32:57.327Z,8.07
2018-04-15T19:35:24.702Z,8.23
2018-04-15T19:37:52.213Z,7.90
2018-04-15T19:40:19.530Z,8.13
2018-04-15T19:42:46.889Z,8.70
2018-04-15T19:45:14.191Z,9.50
2018-04-15T19:47:41.584Z,9.77
2018-04-15T19:50:08.961Z,9.30
2018-04-15T19:52:36.245Z,8.87
2018-04-15T19:55:04.334Z,9.13
2018-04-15T19:57:31.695Z,8.10
2018-04-15T19:59:59.008Z,8.50
2018-04-15T20:02:26.271Z,8.43
2018-04-15T20:04:53.308Z,8.30
2018-04-15T20:07:20.642Z,7.87
2018-04-15T20:09:47.969Z,8.90
2018-04-15T20:12:15.286Z,8.57
2018-04-15T20:14:42.566Z,9.60
2018-04-15T20:17:09.878Z,9.27
2018-04-15T20:19:37.177Z,8.60
2018-04-15T20:22:04.606Z,8.37
2018-04-15T20:24:31.842Z,8.33
2018-04-15T20:26:59.082Z,7.43
2018-04-15T20:29:26.283Z,8.87
2018-04-15T20:31:53.500Z,13.50
2018-04-15T20:34:20.761Z,9.87
2018-04-15T20:36:47.975Z,9.00
2018-04-15T20:39:15.242Z,9.10
2018-04-15T20:41:42.429Z,9.00
2018-04-15T20:44:09.735Z,9.20
2018-04-15T20:46:36.940Z,8.10
2018-04-15T20:49:04.145Z,8.90
2018-04-15T20:51:31.379Z,8.70
2018-04-15T20:53:58.579Z,8.37
2018-04-15T20:56:25.834Z,9.53
2018-04-15T20:58:53.056Z,9.00
2018-04-15T21:01:20.091Z,8.93
2018-04-15T21:03:47.254Z,8.67
2018-04-15T21:06:14.239Z,8.70
2018-04-15T21:08:41.473Z,9.20
2018-04-15T21:11:08.859Z,8.53
2018-04-15T21:13:37.047Z,8.67
2018-04-15T21:16:04.269Z,9.43
2018-04-15T21:18:31.492Z,9.93
2018-04-15T21:20:58.735Z,10.37
2018-04-15T21:23:25.943Z,8.70
2018-04-15T21:25:53.138Z,8.33
2018-04-15T21:28:20.367Z,9.17
2018-04-15T21:30:47.575Z,10.07
2018-04-15T21:33:14.771Z,9.53
2018-04-15T21:35:42.085Z,9.80
2018-04-15T21:38:09.071Z,9.20
2018-04-15T21:40:36.286Z,10.30
2018-04-15T21:43:03.495Z,9.37
2018-04-15T21:45:30.795Z,9.67
2018-04-15T21:47:57.767Z,9.17
2018-04-15T21:50:24.988Z,9.73
2018-04-15T21:52:52.014Z,9.83
2018-04-15T21:55:19.235Z,8.77
2018-04-15T21:57:46.456Z,9.00
2018-04-15T22:00:13.425Z,9.10
2018-04-15T22:02:40.655Z,9.57
2018-04-15T22:05:07.618Z,9.70
2018-04-15T22:07:34.834Z,9.70
2018-04-15T22:10:02.045Z,9.27
2018-04-15T22:12:29.250Z,9.43
2018-04-15T22:14:56.440Z,9.83
2018-04-15T22:17:23.662Z,10.00
2018-04-15T22:19:50.870Z,9.60
2018-04-15T22:22:18.078Z,9.67
2018-04-15T22:24:45.282Z,9.67
2018-04-15T22:27:12.501Z,10.50
2018-04-15T22:29:39.681Z,10.40
2018-04-15T22:32:06.975Z,10.10
2018-04-15T22:34:34.315Z,9.30
2018-04-15T22:37:01.503Z,10.07
2018-04-15T22:39:28.709Z,10.33
2018-04-15T22:41:55.922Z,10.77
2018-04-15T22:44:23.133Z,9.57
2018-04-15T22:46:50.341Z,8.50
2018-04-15T22:49:22.386Z,10.00
2018-04-15T22:51:49.579Z,10.20
2018-04-15T22:54:16.774Z,11.33
2018-04-15T22:56:43.994Z,9.47
2018-04-15T22:59:10.960Z,10.23
2018-04-15T23:01:38.194Z,10.57
2018-04-15T23:04:05.438Z,10.03
2018-04-15T23:06:32.673Z,11.17
2018-04-15T23:08:59.868Z,10.30
2018-04-15T23:11:27.069Z,10.53
2018-04-15T23:13:54.267Z,9.63
2018-04-15T23:16:21.264Z,10.00
2018-04-15T23:18:48.456Z,9.27
2018-04-15T23:21:15.747Z,15.40
2018-04-15T23:23:42.959Z,11.47
2018-04-15T23:26:10.179Z,11.17
2018-04-15T23:28:37.403Z,9.63
2018-04-15T23:31:04.363Z,10.60
2018-04-15T23:33:31.588Z,10.63
2018-04-15T23:35:58.967Z,11.00
2018-04-15T23:38:26.177Z,9.90
2018-04-15T23:40:53.372Z,11.13
2018-04-15T23:43:20.575Z,9.80
2018-04-15T23:45:47.778Z,10.33
2018-04-15T23:48:14.974Z,10.43
2018-04-15T23:50:42.218Z,10.70
2018-04-15T23:53:09.409Z,11.00
2018-04-15T23:55:36.614Z,10.83
2018-04-15T23:58:03.830Z,10.97
